createdAt,value
2019-05-18T00:01:48.279Z,7.57
2019-05-18T00:04:18.650Z,6.30
2019-05-18T00:06:49.006Z,7.70
2019-05-18T00:09:19.515Z,6.93
2019-05-18T00:11:49.883Z,6.50
2019-05-18T00:14:20.308Z,7.37
2019-05-18T00:16:50.683Z,7.50
2019-05-18T00:19:21.083Z,7.73
2019-05-18T00:21:51.478Z,7.17
2019-05-18T00:24:21.945Z,6.70
2019-05-18T00:26:52.363Z,6.50
2019-05-18T00:29:22.922Z,6.67
2019-05-18T00:31:53.326Z,5.97
2019-05-18T00:34:23.835Z,6.80
2019-05-18T00:36:54.291Z,6.63
2019-05-18T00:39:24.686Z,7.30
2019-05-18T00:41:55.155Z,6.47
2019-05-18T00:44:25.589Z,6.73
2019-05-18T00:46:55.944Z,7.17
2019-05-18T00:49:26.570Z,6.80
2019-05-18T00:51:57.104Z,6.33
2019-05-18T00:54:27.787Z,6.00
2019-05-18T00:56:58.556Z,6.73
2019-05-18T00:59:29.167Z,5.93
2019-05-18T01:01:59.801Z,6.80
2019-05-18T01:04:30.435Z,6.03
2019-05-18T01:07:01.075Z,6.77
2019-05-18T01:09:31.702Z,7.00
2019-05-18T01:12:02.149Z,6.83
2019-05-18T01:14:32.543Z,6.93
2019-05-18T01:17:02.912Z,6.03
2019-05-18T01:19:33.300Z,6.60
2019-05-18T01:22:03.637Z,6.73
2019-05-18T01:24:34.007Z,6.70
2019-05-18T01:27:04.365Z,7.37
2019-05-18T01:29:34.922Z,6.87
2019-05-18T01:32:05.454Z,6.90
2019-05-18T01:34:36.087Z,6.87
2019-05-18T01:37:06.465Z,6.93
2019-05-18T01:39:36.843Z,6.50
2019-05-18T01:42:07.202Z,7.00
2019-05-18T01:44:37.569Z,7.50
2019-05-18T01:47:07.930Z,7.07
2019-05-18T01:49:38.328Z,6.43
2019-05-18T01:52:08.760Z,7.13
2019-05-18T01:54:39.142Z,7.60
2019-05-18T01:57:09.755Z,7.70
2019-05-18T01:59:40.151Z,7.27
2019-05-18T02:02:10.543Z,7.23
2019-05-18T02:04:41.034Z,6.87
2019-05-18T02:07:11.437Z,8.00
2019-05-18T02:09:41.850Z,8.33
2019-05-18T02:12:12.294Z,7.70
2019-05-18T02:14:42.699Z,7.87
2019-05-18T02:17:13.097Z,8.03
2019-05-18T02:19:43.498Z,6.73
2019-05-18T02:22:14.271Z,8.60
2019-05-18T02:24:44.670Z,7.90
2019-05-18T02:27:15.032Z,6.67
2019-05-18T02:29:45.455Z,7.70
2019-05-18T02:32:15.834Z,7.80
2019-05-18T02:34:46.313Z,8.20
2019-05-18T02:37:16.795Z,8.47
2019-05-18T02:39:48.858Z,7.83
2019-05-18T02:42:19.270Z,7.43
2019-05-18T02:44:49.678Z,6.83
2019-05-18T02:47:20.073Z,7.23
2019-05-18T02:49:50.557Z,7.73
2019-05-18T02:52:20.930Z,6.60
2019-05-18T02:54:51.327Z,7.03
2019-05-18T02:57:21.758Z,5.97
2019-05-18T02:59:52.142Z,6.50
2019-05-18T03:02:22.509Z,7.17
2019-05-18T03:04:52.923Z,6.10
2019-05-18T03:07:23.281Z,4.87
2019-05-18T03:09:53.746Z,5.93
2019-05-18T03:12:24.215Z,5.77
2019-05-18T03:14:54.604Z,6.00
2019-05-18T03:17:25.276Z,6.60
2019-05-18T03:19:55.671Z,5.70
2019-05-18T03:22:26.045Z,5.83
2019-05-18T03:24:56.465Z,6.10
2019-05-18T03:27:26.813Z,5.10
2019-05-18T03:29:57.268Z,5.20
2019-05-18T03:32:27.689Z,6.27
2019-05-18T03:34:58.099Z,5.37
2019-05-18T03:37:28.502Z,7.07
2019-05-18T03:39:58.956Z,5.87
2019-05-18T03:42:29.387Z,5.87
2019-05-18T03:44:59.864Z,5.93
2019-05-18T03:47:30.237Z,5.67
2019-05-18T03:50:00.625Z,6.00
2019-05-18T03:52:33.914Z,6.30
2019-05-18T03:55:04.491Z,5.63
2019-05-18T03:57:34.864Z,6.00
2019-05-18T04:00:06.049Z,6.27
2019-05-18T04:02:36.431Z,5.50
2019-05-18T04:05:06.937Z,6.10
2019-05-18T04:07:37.345Z,5.60
2019-05-18T04:10:08.134Z,5.77
2019-05-18T04:12:38.522Z,6.40
2019-05-18T04:15:09.410Z,6.37
2019-05-18T04:17:39.811Z,5.97
2019-05-18T04:20:10.336Z,5.67
2019-05-18T04:22:40.709Z,5.90
2019-05-18T04:25:11.091Z,6.27
2019-05-18T04:27:41.481Z,6.43
2019-05-18T04:30:11.988Z,6.40
2019-05-18T04:32:42.392Z,5.60
2019-05-18T04:35:12.878Z,5.90
2019-05-18T04:37:43.240Z,6.70
2019-05-18T04:40:13.927Z,5.70
2019-05-18T04:42:44.280Z,6.50
2019-05-18T04:45:14.691Z,6.20
2019-05-18T04:47:48.435Z,6.07
2019-05-18T04:50:17.223Z,6.10
2019-05-18T04:52:47.610Z,7.13
2019-05-18T04:55:17.988Z,5.97
2019-05-18T04:57:48.385Z,7.37
2019-05-18T05:00:18.759Z,6.27
2019-05-18T05:02:49.133Z,6.37
2019-05-18T05:05:19.559Z,6.10
2019-05-18T05:07:49.974Z,6.43
2019-05-18T05:10:20.409Z,7.53
2019-05-18T05:12:50.764Z,6.37
2019-05-18T05:15:21.154Z,6.50
2019-05-18T05:17:51.543Z,5.73
2019-05-18T05:20:21.997Z,5.97
2019-05-18T05:22:52.330Z,7.00
2019-05-18T05:25:22.715Z,6.33
2019-05-18T05:27:53.076Z,6.50
2019-05-18T05:30:23.460Z,6.10
2019-05-18T05:32:53.811Z,5.63
2019-05-18T05:35:24.216Z,5.20
2019-05-18T05:37:54.590Z,6.53
2019-05-18T05:40:28.617Z,4.90
2019-05-18T05:42:59.008Z,4.83
2019-05-18T05:45:29.385Z,4.80
2019-05-18T05:47:59.778Z,4.53
2019-05-18T05:50:35.889Z,4.80
2019-05-18T05:53:02.213Z,4.77
2019-05-18T05:55:32.614Z,4.90
2019-05-18T05:58:02.990Z,4.70
2019-05-18T06:00:33.387Z,4.03
2019-05-18T06:03:03.829Z,4.10
2019-05-18T06:05:34.222Z,4.30
2019-05-18T06:08:04.610Z,5.37
2019-05-18T06:10:35.042Z,4.40
2019-05-18T06:13:05.399Z,5.20
2019-05-18T06:15:35.782Z,3.80
2019-05-18T06:18:06.184Z,4.70
2019-05-18T06:20:50.401Z,4.40
2019-05-18T06:23:08.633Z,4.20
2019-05-18T06:25:39.010Z,4.13
2019-05-18T06:28:09.524Z,4.10
2019-05-18T06:30:39.890Z,4.50
2019-05-18T06:33:10.373Z,3.80
2019-05-18T06:35:40.743Z,3.87
2019-05-18T06:38:11.124Z,4.13
2019-05-18T06:40:46.823Z,3.93
2019-05-18T06:43:17.216Z,3.70
2019-05-18T06:45:47.654Z,3.13
2019-05-18T06:48:18.122Z,3.77
2019-05-18T06:50:48.477Z,4.10
2019-05-18T06:53:20.568Z,3.77
2019-05-18T06:55:53.353Z,3.63
2019-05-18T06:58:25.682Z,3.33
2019-05-18T07:00:56.017Z,4.70
2019-05-18T07:03:26.437Z,3.60
2019-05-18T07:05:56.810Z,3.30
2019-05-18T07:08:27.190Z,3.83
2019-05-18T07:10:57.624Z,5.00
2019-05-18T07:13:28.410Z,4.10
2019-05-18T07:15:58.819Z,4.30
2019-05-18T07:18:29.220Z,4.63
2019-05-18T07:20:59.561Z,3.83
2019-05-18T07:23:29.960Z,3.90
2019-05-18T07:26:00.338Z,3.50
2019-05-18T07:28:30.731Z,3.60
2019-05-18T07:31:01.093Z,4.00
2019-05-18T07:33:31.578Z,3.80
2019-05-18T07:36:01.941Z,3.80
2019-05-18T07:38:32.342Z,3.90
2019-05-18T07:41:02.708Z,5.50
2019-05-18T07:43:33.243Z,4.30
2019-05-18T07:46:03.711Z,3.83
2019-05-18T07:48:34.302Z,4.57
2019-05-18T07:51:04.856Z,4.27
2019-05-18T07:53:35.331Z,4.80
2019-05-18T07:56:05.869Z,4.60
2019-05-18T07:58:37.064Z,3.40
2019-05-18T08:01:07.630Z,4.33
2019-05-18T08:03:38.204Z,4.27
2019-05-18T08:06:08.775Z,3.93
2019-05-18T08:08:39.362Z,4.33
2019-05-18T08:11:09.839Z,4.20
2019-05-18T08:13:40.351Z,4.73
2019-05-18T08:16:10.848Z,4.93
2019-05-18T08:18:41.405Z,4.17
2019-05-18T08:21:11.847Z,4.30
2019-05-18T08:23:42.250Z,4.60
2019-05-18T08:26:12.751Z,4.83
2019-05-18T08:28:43.375Z,4.80
2019-05-18T08:31:13.873Z,4.53
2019-05-18T08:33:44.440Z,5.40
2019-05-18T08:36:14.996Z,4.80
2019-05-18T08:38:45.557Z,3.70
2019-05-18T08:41:16.076Z,3.53
2019-05-18T08:43:46.685Z,3.90
2019-05-18T08:46:17.239Z,5.30
2019-05-18T08:48:47.807Z,4.53
2019-05-18T08:51:18.323Z,4.33
2019-05-18T08:53:48.933Z,5.00
2019-05-18T08:56:19.505Z,4.93
2019-05-18T08:58:50.147Z,4.73
2019-05-18T09:01:20.603Z,5.00
2019-05-18T09:03:51.206Z,5.83
2019-05-18T09:06:21.705Z,4.50
2019-05-18T09:08:52.296Z,4.60
2019-05-18T09:11:22.812Z,5.80
2019-05-18T09:13:53.348Z,5.33
2019-05-18T09:16:23.861Z,5.30
2019-05-18T09:18:54.430Z,5.30
2019-05-18T09:21:24.987Z,5.30
2019-05-18T09:23:55.533Z,4.57
2019-05-18T09:26:26.034Z,5.07
2019-05-18T09:28:56.659Z,5.73
2019-05-18T09:31:27.201Z,5.70
2019-05-18T09:33:57.705Z,6.00
2019-05-18T09:36:28.378Z,4.97
2019-05-18T09:38:58.920Z,6.00
2019-05-18T09:41:29.480Z,4.73
2019-05-18T09:43:59.966Z,5.53
2019-05-18T09:46:30.564Z,5.20
2019-05-18T09:49:01.110Z,4.67
2019-05-18T09:51:31.637Z,4.37
2019-05-18T09:54:02.218Z,4.70
2019-05-18T09:56:32.733Z,4.40
2019-05-18T09:59:03.331Z,3.90
2019-05-18T10:01:33.889Z,3.90
2019-05-18T10:04:04.581Z,4.20
2019-05-18T10:06:35.234Z,4.60
2019-05-18T10:09:09.146Z,3.80
2019-05-18T10:11:39.680Z,4.33
2019-05-18T10:14:11.509Z,3.60
2019-05-18T10:16:42.147Z,4.53
2019-05-18T10:19:12.699Z,3.90
2019-05-18T10:21:43.269Z,3.67
2019-05-18T10:24:13.778Z,4.00
2019-05-18T10:26:44.298Z,3.67
2019-05-18T10:29:14.793Z,4.60
2019-05-18T10:31:45.420Z,3.70
2019-05-18T10:34:16.259Z,3.87
2019-05-18T10:36:46.895Z,3.90
2019-05-18T10:39:17.526Z,3.67
2019-05-18T10:41:48.037Z,4.07
2019-05-18T10:44:18.538Z,4.10
2019-05-18T10:46:49.050Z,4.67
2019-05-18T10:49:19.562Z,3.20
2019-05-18T10:51:50.030Z,3.47
2019-05-18T10:54:20.575Z,3.60
2019-05-18T10:56:51.114Z,4.50
2019-05-18T10:59:21.754Z,3.70
2019-05-18T11:01:52.331Z,4.80
2019-05-18T11:04:22.830Z,4.57
2019-05-18T11:06:53.310Z,4.27
2019-05-18T11:09:23.879Z,4.87
2019-05-18T11:11:54.425Z,4.43
2019-05-18T11:14:24.939Z,4.70
2019-05-18T11:16:55.451Z,4.70
2019-05-18T11:19:26.008Z,5.13
2019-05-18T11:21:56.580Z,4.87
2019-05-18T11:24:27.164Z,4.53
2019-05-18T11:26:57.702Z,5.10
2019-05-18T11:29:28.278Z,4.70
2019-05-18T11:31:58.875Z,3.70
2019-05-18T11:34:29.356Z,4.40
2019-05-18T11:37:03.078Z,5.33
2019-05-18T11:39:32.141Z,4.67
2019-05-18T11:42:02.777Z,5.00
2019-05-18T11:44:33.353Z,4.40
2019-05-18T11:47:03.948Z,5.23
2019-05-18T11:49:34.587Z,5.67
2019-05-18T11:52:05.145Z,5.10
2019-05-18T11:54:35.657Z,4.70
2019-05-18T11:57:06.392Z,5.40
2019-05-18T11:59:37.017Z,4.73
2019-05-18T12:02:07.620Z,5.50
2019-05-18T12:04:38.138Z,4.97
2019-05-18T12:07:08.780Z,4.40
2019-05-18T12:09:39.404Z,3.97
2019-05-18T12:12:09.987Z,6.53
2019-05-18T12:14:40.591Z,3.90
2019-05-18T12:17:11.136Z,4.07
2019-05-18T12:19:41.629Z,2.87
2019-05-18T12:22:12.210Z,2.47
2019-05-18T12:24:42.751Z,2.70
2019-05-18T12:27:13.294Z,2.10
2019-05-18T12:29:43.825Z,2.20
2019-05-18T12:32:14.437Z,2.33
2019-05-18T12:34:45.513Z,2.30
2019-05-18T12:37:22.736Z,3.67
2019-05-18T12:39:53.868Z,3.00
2019-05-18T12:42:24.474Z,2.57
2019-05-18T12:44:54.938Z,3.23
2019-05-18T12:47:25.503Z,2.90
2019-05-18T12:49:56.095Z,2.53
2019-05-18T12:52:26.778Z,2.73
2019-05-18T12:54:57.265Z,3.43
2019-05-18T12:57:27.794Z,2.70
2019-05-18T12:59:58.357Z,2.30
2019-05-18T13:02:28.983Z,3.00
2019-05-18T13:04:59.566Z,2.50
2019-05-18T13:07:30.186Z,2.80
2019-05-18T13:10:00.711Z,3.30
2019-05-18T13:12:31.329Z,2.57
2019-05-18T13:15:01.957Z,2.43
2019-05-18T13:17:32.549Z,2.33
2019-05-18T13:20:03.038Z,3.00
2019-05-18T13:22:33.592Z,3.13
2019-05-18T13:25:04.238Z,2.37
2019-05-18T13:27:39.569Z,2.50
2019-05-18T13:30:07.478Z,2.17
2019-05-18T13:32:38.131Z,3.03
2019-05-18T13:35:09.110Z,3.43
2019-05-18T13:37:39.683Z,2.90
2019-05-18T13:40:10.642Z,3.20
2019-05-18T13:42:41.293Z,2.70
2019-05-18T13:45:13.622Z,3.63
2019-05-18T13:47:44.281Z,3.20
2019-05-18T13:50:15.282Z,2.40
2019-05-18T13:52:45.851Z,3.77
2019-05-18T13:55:16.405Z,2.67
2019-05-18T13:57:47.060Z,2.40
2019-05-18T14:00:19.346Z,2.47
2019-05-18T14:02:49.989Z,2.13
2019-05-18T14:05:20.462Z,2.53
2019-05-18T14:07:51.050Z,2.77
2019-05-18T14:10:21.781Z,4.60
2019-05-18T14:12:52.368Z,4.83
2019-05-18T14:15:23.336Z,4.67
2019-05-18T14:17:53.915Z,5.67
2019-05-18T14:20:26.527Z,4.50
2019-05-18T14:22:56.778Z,4.37
2019-05-18T14:25:27.476Z,6.13
2019-05-18T14:27:58.129Z,5.57
2019-05-18T14:30:28.733Z,5.53
2019-05-18T14:32:59.390Z,4.17
2019-05-18T14:35:33.312Z,2.77
2019-05-18T14:38:02.331Z,3.03
2019-05-18T14:40:32.897Z,2.70
2019-05-18T14:43:03.500Z,2.30
2019-05-18T14:45:34.207Z,2.23
2019-05-18T14:48:04.852Z,2.47
2019-05-18T14:50:35.609Z,2.10
2019-05-18T14:53:06.095Z,1.77
2019-05-18T14:55:36.591Z,1.80
2019-05-18T14:58:07.151Z,1.83
2019-05-18T15:00:37.759Z,1.77
2019-05-18T15:03:08.302Z,1.47
2019-05-18T15:05:39.001Z,1.60
2019-05-18T15:08:09.854Z,2.20
2019-05-18T15:10:40.414Z,1.60
2019-05-18T15:13:10.993Z,1.90
2019-05-18T15:15:41.589Z,1.90
2019-05-18T15:18:12.175Z,2.30
2019-05-18T15:20:42.853Z,2.17
2019-05-18T15:23:13.441Z,2.23
2019-05-18T15:25:50.821Z,2.40
2019-05-18T15:28:16.267Z,1.60
2019-05-18T15:30:46.816Z,1.80
2019-05-18T15:33:17.401Z,1.40
2019-05-18T15:35:47.916Z,2.13
2019-05-18T15:38:18.542Z,2.23
2019-05-18T15:40:49.146Z,2.40
2019-05-18T15:43:19.657Z,3.30
2019-05-18T15:45:50.267Z,2.70
2019-05-18T15:48:20.823Z,3.70
2019-05-18T15:50:51.439Z,3.27
2019-05-18T15:53:21.958Z,3.90
2019-05-18T15:56:04.897Z,3.60
2019-05-18T15:58:24.805Z,3.90
2019-05-18T16:00:55.418Z,3.50
2019-05-18T16:03:25.921Z,3.43
2019-05-18T16:05:56.346Z,2.43
2019-05-18T16:08:26.836Z,3.47
2019-05-18T16:10:57.462Z,3.80
2019-05-18T16:13:28.018Z,3.07
2019-05-18T16:15:58.631Z,4.03
2019-05-18T16:18:29.192Z,3.90
2019-05-18T16:21:01.921Z,3.17
2019-05-18T16:23:32.584Z,3.00
2019-05-18T16:26:03.179Z,2.10
2019-05-18T16:28:33.724Z,3.27
2019-05-18T16:31:04.338Z,2.90
2019-05-18T16:33:34.869Z,3.63
2019-05-18T16:36:05.475Z,3.80
2019-05-18T16:38:36.013Z,2.93
2019-05-18T16:41:06.700Z,2.80
2019-05-18T16:43:37.249Z,2.30
2019-05-18T16:46:07.915Z,2.17
2019-05-18T16:48:39.471Z,2.00
2019-05-18T16:51:10.166Z,2.30
2019-05-18T16:53:40.733Z,2.47
2019-05-18T16:56:11.309Z,2.47
2019-05-18T16:58:41.820Z,2.03
2019-05-18T17:01:12.286Z,2.50
2019-05-18T17:03:42.844Z,2.60
2019-05-18T17:06:16.336Z,3.00
2019-05-18T17:08:45.679Z,2.50
2019-05-18T17:11:16.233Z,2.70
2019-05-18T17:13:46.729Z,2.47
2019-05-18T17:16:17.274Z,2.37
2019-05-18T17:18:47.794Z,3.60
2019-05-18T17:21:18.371Z,3.57
2019-05-18T17:23:48.909Z,3.00
2019-05-18T17:26:19.574Z,3.30
2019-05-18T17:28:50.307Z,3.07
2019-05-18T17:31:21.079Z,3.17
2019-05-18T17:33:51.838Z,3.10
2019-05-18T17:36:22.619Z,2.67
2019-05-18T17:38:53.391Z,2.83
2019-05-18T17:41:24.151Z,2.50
2019-05-18T17:43:54.781Z,3.10
2019-05-18T17:46:25.558Z,3.60
2019-05-18T17:48:56.167Z,6.53
2019-05-18T17:51:26.865Z,8.03
2019-05-18T17:53:57.433Z,32.53
2019-05-18T17:56:28.025Z,20.53
2019-05-18T17:58:58.729Z,14.27
2019-05-18T18:01:29.395Z,13.90
2019-05-18T18:04:00.284Z,6.70
2019-05-18T18:06:30.933Z,5.07
2019-05-18T18:09:01.512Z,4.63
2019-05-18T18:11:32.183Z,4.40
2019-05-18T18:14:02.805Z,4.53
2019-05-18T18:16:33.423Z,4.00
2019-05-18T18:19:04.115Z,3.70
2019-05-18T18:21:34.747Z,4.10
2019-05-18T18:24:05.491Z,3.90
2019-05-18T18:26:36.052Z,4.60
2019-05-18T18:29:06.727Z,4.73
2019-05-18T18:31:37.213Z,4.50
2019-05-18T18:34:07.803Z,5.03
2019-05-18T18:36:38.387Z,5.00
2019-05-18T18:39:09.280Z,4.13
2019-05-18T18:41:39.891Z,3.50
2019-05-18T18:44:10.591Z,3.70
2019-05-18T18:46:41.136Z,3.73
2019-05-18T18:49:11.923Z,4.60
2019-05-18T18:51:42.719Z,9.47
2019-05-18T18:54:13.407Z,9.17
2019-05-18T18:56:43.966Z,12.27
2019-05-18T18:59:14.737Z,8.70
2019-05-18T19:01:45.412Z,4.40
2019-05-18T19:04:16.275Z,3.67
2019-05-18T19:06:46.890Z,3.07
2019-05-18T19:09:17.598Z,3.07
2019-05-18T19:11:48.428Z,3.90
2019-05-18T19:14:19.151Z,3.67
2019-05-18T19:16:49.857Z,4.40
2019-05-18T19:19:20.612Z,3.30
2019-05-18T19:21:51.398Z,4.00
2019-05-18T19:24:21.984Z,2.73
2019-05-18T19:26:52.829Z,3.20
2019-05-18T19:29:23.596Z,3.00
2019-05-18T19:31:54.256Z,2.90
2019-05-18T19:34:25.060Z,4.00
2019-05-18T19:36:55.776Z,3.90
2019-05-18T19:39:26.509Z,3.77
2019-05-18T19:41:57.535Z,4.93
2019-05-18T19:44:28.060Z,4.90
2019-05-18T19:46:58.846Z,4.50
2019-05-18T19:49:29.547Z,5.50
2019-05-18T19:52:00.250Z,5.70
2019-05-18T19:54:31.105Z,5.40
2019-05-18T19:57:01.759Z,4.00
2019-05-18T19:59:32.430Z,4.63
2019-05-18T20:02:03.119Z,4.07
2019-05-18T20:04:33.831Z,5.07
2019-05-18T20:07:04.503Z,3.83
2019-05-18T20:09:35.224Z,4.43
2019-05-18T20:12:06.223Z,4.60
2019-05-18T20:14:37.031Z,5.50
2019-05-18T20:17:08.112Z,5.07
2019-05-18T20:19:39.879Z,4.30
2019-05-18T20:22:10.728Z,4.37
2019-05-18T20:24:41.525Z,5.07
2019-05-18T20:27:12.113Z,5.30
2019-05-18T20:29:42.734Z,4.87
2019-05-18T20:32:13.277Z,5.70
2019-05-18T20:34:43.891Z,5.43
2019-05-18T20:37:14.395Z,5.67
2019-05-18T20:39:45.028Z,4.50
2019-05-18T20:42:15.658Z,4.97
2019-05-18T20:44:46.283Z,4.43
2019-05-18T20:47:16.784Z,4.57
2019-05-18T20:49:47.433Z,5.27
2019-05-18T20:52:17.942Z,4.90
2019-05-18T20:54:48.638Z,5.10
2019-05-18T20:57:19.310Z,5.10
2019-05-18T20:59:49.991Z,6.10
2019-05-18T21:02:20.610Z,5.80
2019-05-18T21:04:51.169Z,5.43
2019-05-18T21:07:21.648Z,5.30
2019-05-18T21:09:52.123Z,6.17
2019-05-18T21:12:22.583Z,5.60
2019-05-18T21:14:53.097Z,4.63
2019-05-18T21:17:23.610Z,4.83
2019-05-18T21:19:54.149Z,5.53
2019-05-18T21:22:24.659Z,5.13
2019-05-18T21:24:55.302Z,4.87
2019-05-18T21:27:25.758Z,5.60
2019-05-18T21:29:56.427Z,4.90
2019-05-18T21:32:26.983Z,4.90
2019-05-18T21:34:57.570Z,5.17
2019-05-18T21:37:28.135Z,4.97
2019-05-18T21:39:58.630Z,3.87
2019-05-18T21:42:29.230Z,3.97
2019-05-18T21:44:59.816Z,3.80
2019-05-18T21:47:30.437Z,4.43
2019-05-18T21:50:01.021Z,4.37
2019-05-18T21:52:31.648Z,4.30
2019-05-18T21:55:02.322Z,4.77
2019-05-18T21:57:33.180Z,5.83
2019-05-18T22:00:03.853Z,5.43
2019-05-18T22:02:34.420Z,6.00
2019-05-18T22:05:05.631Z,6.10
2019-05-18T22:07:36.372Z,5.00
2019-05-18T22:10:07.362Z,5.00
2019-05-18T22:12:37.917Z,6.00
2019-05-18T22:15:09.303Z,5.80
2019-05-18T22:17:58.781Z,4.90
2019-05-18T22:20:34.310Z,4.37
2019-05-18T22:23:05.496Z,4.00
2019-05-18T22:25:36.189Z,3.63
2019-05-18T22:28:06.668Z,3.67
2019-05-18T22:30:37.353Z,4.30
2019-05-18T22:33:07.889Z,4.70
2019-05-18T22:35:38.419Z,4.33
2019-05-18T22:38:08.944Z,4.40
2019-05-18T22:40:39.578Z,4.63
2019-05-18T22:43:10.083Z,3.93
2019-05-18T22:45:40.634Z,4.57
2019-05-18T22:48:11.225Z,3.87
2019-05-18T22:50:41.819Z,4.63
2019-05-18T22:53:12.359Z,4.30
2019-05-18T22:55:42.870Z,4.10
2019-05-18T22:58:13.489Z,4.23
2019-05-18T23:00:44.134Z,4.50
2019-05-18T23:03:14.685Z,4.30
2019-05-18T23:05:45.244Z,4.90
2019-05-18T23:08:15.742Z,4.33
2019-05-18T23:10:46.234Z,4.97
2019-05-18T23:13:16.783Z,4.50
2019-05-18T23:15:47.316Z,4.50
2019-05-18T23:18:17.860Z,4.90
2019-05-18T23:20:48.409Z,4.57
2019-05-18T23:23:18.975Z,5.30
2019-05-18T23:25:49.487Z,5.43
2019-05-18T23:28:20.053Z,5.30
2019-05-18T23:30:50.578Z,5.80
2019-05-18T23:33:21.147Z,6.33
2019-05-18T23:35:51.642Z,6.40
2019-05-18T23:38:22.199Z,5.97
2019-05-18T23:40:52.758Z,5.40
2019-05-18T23:43:23.285Z,5.30
2019-05-18T23:45:53.827Z,6.10
2019-05-18T23:48:24.352Z,5.70
2019-05-18T23:50:54.860Z,5.70
2019-05-18T23:53:25.382Z,6.03
2019-05-18T23:55:55.889Z,6.40
2019-05-18T23:58:26.499Z,6.40
